Time;durP1;ratioP1;P1;durP2;ratioP2;P2;SDS_P1;SDS_P2;PMS_P1;PMS_P2;Temp;Humidity;BMP_temperature;BMP_pressure;BME280_temperature;BME280_humidity;BME280_pressure;Samples;Min_cycle;Max_cycle;Signal;HPM_P1;HPM_P2
2023/12/18 00:00:37;;;;;;;27.57;16.83;;;3.70;99.90;;;;;;4959703;28;20214;-69
2023/12/18 00:03:03;;;;;;;31.43;19.20;;;3.80;99.90;;;;;;4962708;28;20660;-69
2023/12/18 00:05:28;;;;;;;40.63;20.40;;;3.90;99.90;;;;;;4959168;28;20219;-68
2023/12/18 00:07:54;;;;;;;33.03;17.27;;;3.90;99.90;;;;;;4960409;28;20993;-70
2023/12/18 00:10:19;;;;;;;37.23;18.47;;;3.80;99.90;;;;;;4961863;28;20578;-70
2023/12/18 00:12:45;;;;;;;36.13;17.60;;;3.90;99.90;;;;;;4961287;28;20205;-69
2023/12/18 00:15:11;;;;;;;31.77;17.93;;;3.90;99.90;;;;;;4956507;28;20180;-69
2023/12/18 00:17:36;;;;;;;42.50;17.23;;;3.80;99.90;;;;;;4957882;28;20663;-69
2023/12/18 00:20:02;;;;;;;40.37;17.67;;;3.70;99.90;;;;;;4965179;28;20261;-68
2023/12/18 00:22:27;;;;;;;33.23;16.23;;;3.80;99.90;;;;;;4962760;28;20191;-67
2023/12/18 00:24:53;;;;;;;43.33;17.30;;;3.60;99.90;;;;;;4965031;28;20473;-68
2023/12/18 00:27:19;;;;;;;36.27;16.10;;;3.50;99.90;;;;;;4961635;28;20238;-68
2023/12/18 00:29:44;;;;;;;24.83;14.30;;;3.50;99.90;;;;;;4958128;28;20201;-68
2023/12/18 00:32:10;;;;;;;45.83;16.47;;;3.60;99.90;;;;;;4962678;28;20729;-68
2023/12/18 00:34:35;;;;;;;29.67;15.87;;;3.60;99.90;;;;;;4960264;28;20210;-68
2023/12/18 00:37:01;;;;;;;34.70;16.80;;;3.60;99.90;;;;;;4956936;28;20274;-69
2023/12/18 00:39:26;;;;;;;37.10;16.67;;;3.50;99.90;;;;;;4960517;28;20554;-69
2023/12/18 00:41:52;;;;;;;42.23;16.83;;;3.50;99.90;;;;;;4959644;28;20589;-69
2023/12/18 00:44:17;;;;;;;27.73;16.17;;;3.60;99.90;;;;;;4956598;28;20625;-68
2023/12/18 00:46:43;;;;;;;34.80;15.80;;;3.50;99.90;;;;;;4957055;28;20186;-68
2023/12/18 00:49:09;;;;;;;48.47;17.90;;;3.40;99.90;;;;;;4952846;28;20241;-68
2023/12/18 00:51:34;;;;;;;34.33;16.50;;;3.50;99.90;;;;;;4955719;28;20263;-69
2023/12/18 00:54:00;;;;;;;36.70;15.50;;;3.60;99.90;;;;;;4958189;28;20203;-68
2023/12/18 00:56:26;;;;;;;34.17;17.57;;;3.40;99.90;;;;;;4953072;28;20715;-69
2023/12/18 00:58:51;;;;;;;48.70;18.43;;;3.50;99.90;;;;;;4952608;28;20202;-69
2023/12/18 01:01:17;;;;;;;40.70;18.13;;;3.50;99.90;;;;;;4957620;28;20799;-70
2023/12/18 01:03:42;;;;;;;36.20;16.50;;;3.50;99.90;;;;;;4962555;28;20248;-69
2023/12/18 01:06:08;;;;;;;31.13;16.10;;;3.50;99.90;;;;;;4959082;28;20190;-69
2023/12/18 01:08:33;;;;;;;32.63;17.23;;;3.40;99.90;;;;;;4957448;28;20241;-69
2023/12/18 01:10:59;;;;;;;30.13;16.70;;;3.40;99.90;;;;;;4956000;28;20528;-69
2023/12/18 01:13:24;;;;;;;54.07;17.97;;;3.50;99.90;;;;;;4972357;28;20210;-69
2023/12/18 01:15:50;;;;;;;35.73;17.37;;;3.40;99.90;;;;;;4961867;28;20190;-69
2023/12/18 01:18:16;;;;;;;42.77;18.20;;;3.40;99.90;;;;;;4957203;28;20191;-69
2023/12/18 01:20:41;;;;;;;28.67;17.10;;;3.40;99.90;;;;;;4956884;28;20245;-69
2023/12/18 01:23:07;;;;;;;31.87;17.43;;;3.40;99.90;;;;;;4956999;28;20744;-69
2023/12/18 01:25:33;;;;;;;27.87;17.77;;;3.30;99.90;;;;;;4958495;28;20301;-69
2023/12/18 01:27:59;;;;;;;39.77;19.17;;;3.50;99.90;;;;;;4957834;28;20209;-68
2023/12/18 01:30:25;;;;;;;28.43;17.13;;;3.60;99.90;;;;;;4955539;28;20847;-69
2023/12/18 01:32:51;;;;;;;36.87;17.03;;;3.50;99.90;;;;;;4966962;28;20954;-69
2023/12/18 01:35:17;;;;;;;30.67;18.20;;;3.60;99.90;;;;;;4971327;28;20537;-69
2023/12/18 01:37:42;;;;;;;28.53;17.60;;;3.50;99.90;;;;;;4967564;28;20194;-69
2023/12/18 01:40:08;;;;;;;32.73;17.10;;;3.60;99.90;;;;;;4969090;28;20264;-69
2023/12/18 01:42:34;;;;;;;29.80;17.43;;;3.70;99.90;;;;;;4970591;28;20542;-69
2023/12/18 01:45:00;;;;;;;28.93;17.33;;;3.70;99.90;;;;;;4964782;28;20462;-69
2023/12/18 01:47:25;;;;;;;32.73;18.03;;;3.80;99.90;;;;;;4965119;28;20198;-69
2023/12/18 01:49:51;;;;;;;28.37;16.10;;;3.60;99.90;;;;;;4966720;28;20683;-69
2023/12/18 01:52:18;;;;;;;27.93;15.87;;;3.70;99.90;;;;;;4963612;28;20213;-69
2023/12/18 01:54:45;;;;;;;26.30;16.20;;;3.50;99.90;;;;;;4964721;28;20543;-69
2023/12/18 01:57:12;;;;;;;28.57;17.80;;;3.40;99.90;;;;;;4966720;28;20436;-69
2023/12/18 01:59:37;;;;;;;31.03;18.30;;;3.30;99.90;;;;;;4962780;28;20862;-69
2023/12/18 02:02:03;;;;;;;27.20;16.67;;;3.50;99.90;;;;;;4960211;28;20477;-69
2023/12/18 02:04:29;;;;;;;23.83;15.17;;;3.60;99.90;;;;;;4962729;28;20309;-69
2023/12/18 02:06:55;;;;;;;30.47;18.87;;;3.60;99.90;;;;;;4967375;28;20233;-69
2023/12/18 02:09:21;;;;;;;27.00;16.53;;;3.50;99.90;;;;;;4964797;28;20488;-69
2023/12/18 02:11:47;;;;;;;26.67;15.83;;;3.40;99.90;;;;;;4964427;28;20483;-69
2023/12/18 02:14:13;;;;;;;28.73;17.10;;;3.40;99.90;;;;;;4967193;28;20445;-69
2023/12/18 02:16:38;;;;;;;27.60;16.93;;;3.40;99.90;;;;;;4968293;28;20201;-69
2023/12/18 02:19:04;;;;;;;23.60;15.47;;;3.50;99.90;;;;;;4965808;28;20936;-69
2023/12/18 02:21:29;;;;;;;28.50;15.57;;;3.40;99.90;;;;;;4962394;28;20183;-69
2023/12/18 02:23:55;;;;;;;25.00;16.53;;;3.40;99.90;;;;;;4960919;28;20264;-68
2023/12/18 02:26:21;;;;;;;22.17;15.80;;;3.40;99.90;;;;;;4958506;28;20205;-69
2023/12/18 02:28:47;;;;;;;30.30;17.17;;;3.40;99.90;;;;;;4960494;28;20183;-69
2023/12/18 02:31:14;;;;;;;29.57;16.67;;;3.40;99.90;;;;;;4958349;28;20448;-69
2023/12/18 02:33:40;;;;;;;28.70;16.43;;;3.40;99.90;;;;;;4956016;28;20333;-69
2023/12/18 02:36:07;;;;;;;25.03;16.30;;;3.50;99.90;;;;;;4954136;28;20422;-69
2023/12/18 02:38:32;;;;;;;26.87;16.37;;;3.40;99.90;;;;;;4960570;28;20514;-69
2023/12/18 02:40:58;;;;;;;28.97;18.27;;;3.50;99.90;;;;;;4960555;28;20677;-69
2023/12/18 02:43:23;;;;;;;23.40;14.87;;;3.40;99.90;;;;;;4956500;28;20215;-69
2023/12/18 02:45:49;;;;;;;22.33;14.60;;;3.40;99.90;;;;;;4959241;28;20360;-69
2023/12/18 02:48:14;;;;;;;28.07;16.87;;;3.40;99.90;;;;;;4964551;28;20556;-69
2023/12/18 02:50:40;;;;;;;21.17;14.77;;;3.40;99.90;;;;;;4961758;28;20555;-70
2023/12/18 02:53:05;;;;;;;27.03;16.10;;;3.30;99.90;;;;;;4959614;28;20199;-69
2023/12/18 02:55:31;;;;;;;25.00;16.30;;;3.30;99.90;;;;;;4963477;28;20739;-69
2023/12/18 02:57:57;;;;;;;21.67;15.97;;;3.40;99.90;;;;;;4964604;28;20634;-69
2023/12/18 03:00:22;;;;;;;22.30;15.27;;;3.40;99.90;;;;;;4962471;28;20193;-69
2023/12/18 03:02:48;;;;;;;23.07;13.83;;;3.40;99.90;;;;;;4963438;28;20219;-69
2023/12/18 03:05:14;;;;;;;23.63;15.53;;;3.50;99.90;;;;;;4960593;28;20662;-69
2023/12/18 03:07:39;;;;;;;24.47;16.03;;;3.40;99.90;;;;;;4961638;28;20183;-69
2023/12/18 03:10:06;;;;;;;26.70;14.37;;;3.40;99.90;;;;;;4959098;28;20497;-69
2023/12/18 03:12:31;;;;;;;23.27;16.07;;;3.40;99.90;;;;;;4964309;28;20193;-69
2023/12/18 03:14:58;;;;;;;21.57;14.23;;;3.30;99.90;;;;;;4962352;28;20449;-69
2023/12/18 03:17:23;;;;;;;26.10;16.47;;;3.40;99.90;;;;;;4963113;28;20527;-69
2023/12/18 03:19:49;;;;;;;22.67;13.70;;;3.30;99.90;;;;;;4960240;28;20191;-68
2023/12/18 03:22:14;;;;;;;21.40;14.53;;;3.40;99.90;;;;;;4960811;28;20277;-69
2023/12/18 03:24:42;;;;;;;23.00;15.20;;;3.60;99.90;;;;;;4961435;28;20215;-69
2023/12/18 03:27:08;;;;;;;21.63;14.67;;;3.50;99.90;;;;;;4959702;28;20207;-69
2023/12/18 03:29:34;;;;;;;20.50;13.80;;;3.50;99.90;;;;;;4958972;28;20419;-69
2023/12/18 03:32:00;;;;;;;18.60;12.80;;;3.40;99.90;;;;;;4959244;28;20445;-69
2023/12/18 03:34:26;;;;;;;21.20;14.03;;;3.40;99.90;;;;;;4960741;28;20313;-69
2023/12/18 03:36:52;;;;;;;19.57;14.50;;;3.50;99.90;;;;;;4963571;28;20547;-69
2023/12/18 03:39:17;;;;;;;22.10;14.97;;;3.50;99.90;;;;;;4960256;28;20198;-69
2023/12/18 03:41:43;;;;;;;24.10;15.10;;;3.40;99.90;;;;;;4958688;28;20212;-69
2023/12/18 03:44:08;;;;;;;22.87;14.00;;;3.40;99.90;;;;;;4964936;28;20277;-69
2023/12/18 03:46:34;;;;;;;22.17;15.17;;;3.30;99.90;;;;;;4959761;28;20191;-69
2023/12/18 03:48:59;;;;;;;24.77;15.50;;;3.30;99.90;;;;;;4954659;28;20257;-69
2023/12/18 03:51:25;;;;;;;20.80;14.40;;;3.20;99.90;;;;;;4961651;28;20183;-69
2023/12/18 03:53:51;;;;;;;22.10;13.63;;;3.30;99.90;;;;;;4959625;28;20214;-69
2023/12/18 03:56:16;;;;;;;23.20;14.73;;;3.30;99.90;;;;;;4963039;28;20178;-69
2023/12/18 03:58:42;;;;;;;27.50;16.07;;;3.30;99.90;;;;;;4959038;28;20187;-69
2023/12/18 04:01:07;;;;;;;22.73;15.03;;;3.30;99.90;;;;;;4962087;28;20234;-69
2023/12/18 04:03:33;;;;;;;20.70;14.40;;;3.30;99.90;;;;;;4960389;28;20306;-69
2023/12/18 04:05:58;;;;;;;23.83;15.63;;;3.20;99.90;;;;;;4960436;28;20219;-69
2023/12/18 04:08:24;;;;;;;27.73;15.67;;;3.20;99.90;;;;;;4959972;28;20187;-69
2023/12/18 04:10:49;;;;;;;20.00;13.50;;;3.30;99.90;;;;;;4954095;28;20186;-69
2023/12/18 04:13:15;;;;;;;26.50;15.93;;;3.30;99.90;;;;;;4959779;28;20222;-69
2023/12/18 04:15:40;;;;;;;24.27;14.87;;;3.30;99.90;;;;;;4964383;28;20187;-69
2023/12/18 04:18:07;;;;;;;23.27;15.07;;;3.10;99.90;;;;;;4959302;28;20182;-69
2023/12/18 04:20:32;;;;;;;25.53;16.40;;;3.10;99.90;;;;;;4959801;28;21212;-69
2023/12/18 04:22:58;;;;;;;21.93;14.80;;;3.10;99.90;;;;;;4962079;28;20450;-69
2023/12/18 04:25:24;;;;;;;23.43;15.40;;;3.10;99.90;;;;;;4955102;28;20316;-69
2023/12/18 04:27:50;;;;;;;22.30;16.33;;;3.20;99.90;;;;;;4956068;28;20270;-69
2023/12/18 04:30:15;;;;;;;22.30;15.97;;;3.10;99.90;;;;;;4961499;28;20422;-69
2023/12/18 04:32:41;;;;;;;23.03;15.20;;;3.20;99.90;;;;;;4960683;28;20179;-69
2023/12/18 04:35:07;;;;;;;23.27;15.30;;;3.10;99.90;;;;;;4958997;28;20245;-69
2023/12/18 04:37:34;;;;;;;21.90;15.53;;;3.10;99.90;;;;;;4964058;28;20202;-69
2023/12/18 04:39:59;;;;;;;23.80;14.13;;;3.00;99.90;;;;;;4961212;28;20476;-69
2023/12/18 04:42:25;;;;;;;23.13;15.00;;;3.10;99.90;;;;;;4959120;28;20438;-69
2023/12/18 04:44:51;;;;;;;24.83;15.20;;;3.10;99.90;;;;;;4959293;28;20293;-69
2023/12/18 04:47:16;;;;;;;23.70;15.10;;;3.10;99.90;;;;;;4959580;28;20451;-69
2023/12/18 04:49:42;;;;;;;22.17;14.40;;;3.10;99.90;;;;;;4961787;28;20644;-69
2023/12/18 04:52:07;;;;;;;27.23;15.47;;;3.10;99.90;;;;;;4959206;28;20187;-69
2023/12/18 04:54:33;;;;;;;25.10;14.97;;;3.10;99.90;;;;;;4958056;28;20226;-69
2023/12/18 04:56:58;;;;;;;21.93;13.90;;;3.10;99.90;;;;;;4961931;28;20184;-69
2023/12/18 04:59:24;;;;;;;26.37;14.90;;;3.10;99.90;;;;;;4959994;28;20610;-69
2023/12/18 05:01:49;;;;;;;31.50;15.53;;;3.00;99.90;;;;;;4957209;28;20186;-69
2023/12/18 05:04:15;;;;;;;25.47;14.30;;;3.00;99.90;;;;;;4957457;28;20229;-69
2023/12/18 05:06:41;;;;;;;22.53;14.30;;;2.90;99.90;;;;;;4957007;28;20228;-69
2023/12/18 05:09:06;;;;;;;25.03;15.03;;;3.00;99.90;;;;;;4962461;28;20240;-69
2023/12/18 05:11:32;;;;;;;26.00;14.33;;;2.90;99.90;;;;;;4959650;28;20198;-69
2023/12/18 05:13:58;;;;;;;29.10;15.60;;;2.90;99.90;;;;;;4964148;28;20198;-69
2023/12/18 05:16:24;;;;;;;26.90;15.27;;;2.90;99.90;;;;;;4959113;28;20488;-68
2023/12/18 05:18:49;;;;;;;20.30;15.00;;;3.00;99.90;;;;;;4959688;28;20625;-69
2023/12/18 05:21:15;;;;;;;22.27;15.60;;;2.90;99.90;;;;;;4958404;28;20641;-69
2023/12/18 05:23:40;;;;;;;23.20;15.10;;;2.90;99.90;;;;;;4961820;28;20690;-69
2023/12/18 05:26:06;;;;;;;27.00;15.03;;;2.90;99.90;;;;;;4958931;28;20296;-69
2023/12/18 05:28:32;;;;;;;29.83;13.90;;;3.00;99.90;;;;;;4962097;28;20270;-69
2023/12/18 05:30:57;;;;;;;20.37;15.07;;;3.00;99.90;;;;;;4959596;28;20859;-69
2023/12/18 05:33:25;;;;;;;31.63;15.60;;;3.00;99.90;;;;;;4959894;28;20307;-69
2023/12/18 05:35:50;;;;;;;20.50;13.40;;;3.00;99.90;;;;;;4963721;28;20229;-69
2023/12/18 05:38:16;;;;;;;26.60;14.57;;;3.00;99.90;;;;;;4959214;28;20464;-70
2023/12/18 05:40:41;;;;;;;25.97;14.30;;;3.00;99.90;;;;;;4963476;28;20195;-69
2023/12/18 05:43:07;;;;;;;22.97;14.43;;;2.80;99.90;;;;;;4960889;28;20213;-69
2023/12/18 05:45:33;;;;;;;22.90;13.00;;;2.80;99.90;;;;;;4963432;28;20715;-69
2023/12/18 05:47:59;;;;;;;23.83;14.77;;;3.00;99.90;;;;;;4965771;28;20182;-69
2023/12/18 05:50:25;;;;;;;42.83;15.10;;;3.00;99.90;;;;;;4960456;28;20198;-69
2023/12/18 05:52:50;;;;;;;23.90;14.50;;;3.00;99.90;;;;;;4962600;28;20445;-69
2023/12/18 05:55:16;;;;;;;28.53;16.37;;;3.00;99.90;;;;;;4963247;28;20544;-69
2023/12/18 05:57:42;;;;;;;27.57;15.37;;;3.00;99.90;;;;;;4958125;28;20596;-69
2023/12/18 06:00:09;;;;;;;24.03;15.73;;;3.00;99.90;;;;;;4962973;28;20437;-69
2023/12/18 06:02:35;;;;;;;36.23;17.10;;;2.90;99.90;;;;;;4961358;28;20426;-69
2023/12/18 06:05:00;;;;;;;20.77;14.57;;;2.80;99.90;;;;;;4958732;28;20481;-69
2023/12/18 06:07:26;;;;;;;54.17;17.50;;;2.90;99.90;;;;;;4956378;28;20427;-69
2023/12/18 06:09:51;;;;;;;25.10;15.30;;;2.90;99.90;;;;;;4967312;28;20183;-69
2023/12/18 06:12:17;;;;;;;25.90;15.80;;;2.90;99.90;;;;;;4959328;28;20277;-69
2023/12/18 06:14:43;;;;;;;24.53;16.93;;;2.90;99.90;;;;;;4957189;28;20222;-69
2023/12/18 06:17:09;;;;;;;21.40;14.77;;;2.90;99.90;;;;;;4960187;28;20190;-69
2023/12/18 06:19:35;;;;;;;24.03;15.97;;;3.00;99.90;;;;;;4963130;28;20186;-69
2023/12/18 06:22:01;;;;;;;24.43;16.10;;;3.10;99.90;;;;;;4958098;28;21412;-69
2023/12/18 06:24:27;;;;;;;24.67;16.63;;;3.10;99.90;;;;;;4957191;28;20222;-68
2023/12/18 06:26:53;;;;;;;22.73;14.03;;;3.10;99.90;;;;;;4959807;28;22487;-68
2023/12/18 06:29:19;;;;;;;24.60;15.53;;;3.10;99.90;;;;;;4962602;28;20234;-68
2023/12/18 06:31:44;;;;;;;26.10;14.30;;;3.10;99.90;;;;;;4958184;28;20473;-68
2023/12/18 06:34:11;;;;;;;21.87;15.07;;;3.10;99.90;;;;;;4960137;28;21018;-68
2023/12/18 06:36:37;;;;;;;20.47;15.17;;;3.10;99.90;;;;;;4962342;28;20194;-69
2023/12/18 06:39:03;;;;;;;22.77;14.87;;;3.10;99.90;;;;;;4955993;28;20486;-69
2023/12/18 06:41:28;;;;;;;31.47;16.27;;;3.10;99.90;;;;;;4959127;28;20191;-69
2023/12/18 06:43:54;;;;;;;22.70;15.57;;;3.10;99.90;;;;;;4958011;28;20552;-69
2023/12/18 06:46:20;;;;;;;23.33;13.63;;;3.00;99.90;;;;;;4960018;28;20208;-69
2023/12/18 06:48:46;;;;;;;21.50;14.20;;;2.90;99.90;;;;;;4960092;28;20426;-69
2023/12/18 06:51:11;;;;;;;29.23;16.37;;;3.00;99.90;;;;;;4956201;28;20227;-69
2023/12/18 06:53:37;;;;;;;22.83;14.30;;;3.10;99.90;;;;;;4958243;28;20942;-68
2023/12/18 06:56:03;;;;;;;25.93;15.80;;;3.00;99.90;;;;;;4956943;28;20191;-69
2023/12/18 06:58:29;;;;;;;25.17;14.03;;;2.90;99.90;;;;;;4959468;28;20438;-69
2023/12/18 07:00:54;;;;;;;25.83;15.30;;;2.80;99.90;;;;;;4957552;28;20450;-69
2023/12/18 07:03:20;;;;;;;24.43;14.80;;;3.00;99.90;;;;;;4961726;28;20225;-69
2023/12/18 07:05:46;;;;;;;25.37;14.00;;;3.10;99.90;;;;;;4957375;28;20714;-69
2023/12/18 07:08:12;;;;;;;26.13;14.70;;;3.10;99.90;;;;;;4960953;28;20182;-69
2023/12/18 07:10:38;;;;;;;22.40;13.50;;;3.10;99.90;;;;;;4955079;28;20784;-69
2023/12/18 07:13:04;;;;;;;24.53;14.40;;;3.00;99.90;;;;;;4961696;28;20220;-69
2023/12/18 07:15:30;;;;;;;25.73;13.87;;;2.90;99.90;;;;;;4957477;28;20457;-69
2023/12/18 07:17:58;;;;;;;20.80;14.97;;;2.80;99.90;;;;;;4957388;28;20191;-69
2023/12/18 07:20:24;;;;;;;20.07;14.00;;;2.80;99.90;;;;;;4958277;28;20190;-69
2023/12/18 07:22:50;;;;;;;21.50;14.67;;;2.90;99.90;;;;;;4959470;28;20477;-69
2023/12/18 07:25:16;;;;;;;23.70;14.03;;;2.90;99.90;;;;;;4957505;28;20882;-69
2023/12/18 07:27:41;;;;;;;31.23;14.37;;;2.80;99.90;;;;;;4962616;28;20194;-69
2023/12/18 07:30:08;;;;;;;22.03;14.00;;;2.80;99.90;;;;;;4962699;28;20184;-69
2023/12/18 07:32:35;;;;;;;22.90;13.43;;;2.90;99.90;;;;;;4958188;28;20675;-69
2023/12/18 07:35:00;;;;;;;24.73;14.50;;;2.80;99.90;;;;;;4959732;28;20434;-69
2023/12/18 07:37:30;;;;;;;27.60;14.40;;;2.70;99.90;;;;;;4962000;28;20433;-69
2023/12/18 07:39:56;;;;;;;25.00;14.67;;;2.80;99.90;;;;;;4962994;28;20203;-69
2023/12/18 07:42:22;;;;;;;24.97;15.60;;;2.70;99.90;;;;;;4962449;28;20442;-69
2023/12/18 07:44:48;;;;;;;26.77;16.27;;;2.70;99.90;;;;;;4964428;28;20475;-68
2023/12/18 07:47:14;;;;;;;23.10;14.57;;;2.70;99.90;;;;;;4964529;28;20511;-68
2023/12/18 07:49:40;;;;;;;29.63;16.40;;;2.80;99.90;;;;;;4957824;28;20671;-68
2023/12/18 07:52:06;;;;;;;26.57;16.33;;;2.90;99.90;;;;;;4957832;28;20490;-68
2023/12/18 07:54:32;;;;;;;28.20;14.70;;;2.90;99.90;;;;;;4954473;28;20454;-69
2023/12/18 07:56:57;;;;;;;26.53;15.10;;;2.70;99.90;;;;;;4962010;28;20197;-69
2023/12/18 07:59:23;;;;;;;24.30;14.70;;;2.70;99.90;;;;;;4958716;28;20434;-68
2023/12/18 08:01:49;;;;;;;22.83;14.07;;;2.80;99.90;;;;;;4959995;28;20190;-68
2023/12/18 08:04:14;;;;;;;28.70;14.87;;;2.80;99.90;;;;;;4963289;28;20283;-68
2023/12/18 08:06:40;;;;;;;22.37;12.43;;;2.80;99.90;;;;;;4956974;28;20187;-68
2023/12/18 08:09:05;;;;;;;24.77;13.80;;;2.90;99.90;;;;;;4960883;28;20203;-68
2023/12/18 08:11:31;;;;;;;24.50;14.00;;;3.00;99.90;;;;;;4965070;28;20184;-68
2023/12/18 08:13:56;;;;;;;21.67;14.23;;;2.90;99.90;;;;;;4964546;28;20210;-69
2023/12/18 08:16:25;;;;;;;24.60;13.53;;;2.80;99.90;;;;;;4963215;28;20182;-69
2023/12/18 08:18:50;;;;;;;20.90;14.57;;;2.90;99.90;;;;;;4961835;28;20225;-69
2023/12/18 08:21:16;;;;;;;19.13;12.53;;;2.90;99.90;;;;;;4961618;28;21018;-69
2023/12/18 08:23:42;;;;;;;19.33;13.87;;;2.80;99.90;;;;;;4957013;28;20205;-69
2023/12/18 08:26:11;;;;;;;19.20;12.67;;;2.90;99.90;;;;;;4963246;28;20768;-69
2023/12/18 08:28:41;;;;;;;17.87;12.10;;;3.00;99.90;;;;;;4956605;28;20429;-69
2023/12/18 08:31:07;;;;;;;21.13;13.87;;;3.10;99.90;;;;;;4966451;28;20475;-69
2023/12/18 08:33:32;;;;;;;21.20;13.07;;;3.20;99.90;;;;;;4961881;28;20453;-69
2023/12/18 08:35:58;;;;;;;19.23;12.63;;;3.00;99.90;;;;;;4955766;28;20206;-69
2023/12/18 08:38:23;;;;;;;19.13;13.37;;;3.00;99.90;;;;;;4963841;28;20739;-69
2023/12/18 08:40:49;;;;;;;18.87;12.90;;;3.10;99.90;;;;;;4960534;28;20205;-69
2023/12/18 08:43:15;;;;;;;21.97;13.30;;;3.20;99.90;;;;;;4966203;28;20241;-69
2023/12/18 08:45:40;;;;;;;22.00;14.03;;;3.20;99.90;;;;;;4959996;28;20206;-69
2023/12/18 08:48:06;;;;;;;21.70;14.13;;;3.30;99.90;;;;;;4962039;28;20190;-69
2023/12/18 08:50:32;;;;;;;20.80;13.53;;;3.40;99.90;;;;;;4957331;28;20191;-69
2023/12/18 08:52:58;;;;;;;19.23;12.80;;;3.50;99.90;;;;;;4953424;28;20985;-69
2023/12/18 08:55:24;;;;;;;16.77;12.10;;;3.40;99.90;;;;;;4957765;28;20186;-69
2023/12/18 08:57:49;;;;;;;21.00;13.70;;;3.50;99.90;;;;;;4961100;28;20178;-69
2023/12/18 09:00:15;;;;;;;20.90;13.60;;;3.60;99.90;;;;;;4959222;28;20185;-69
2023/12/18 09:02:41;;;;;;;23.03;13.57;;;3.60;99.90;;;;;;4959855;28;20562;-69
2023/12/18 09:05:06;;;;;;;19.70;13.63;;;3.70;99.90;;;;;;4962604;28;20264;-68
2023/12/18 09:07:32;;;;;;;17.40;12.97;;;3.70;99.90;;;;;;4960355;28;20269;-69
2023/12/18 09:10:00;;;;;;;21.40;13.30;;;3.70;99.90;;;;;;4958201;28;20418;-69
2023/12/18 09:12:26;;;;;;;19.70;13.63;;;3.80;99.90;;;;;;4959100;28;20198;-69
2023/12/18 09:14:51;;;;;;;24.00;14.83;;;3.90;99.90;;;;;;4959480;28;20435;-69
2023/12/18 09:17:17;;;;;;;23.90;13.97;;;3.80;99.90;;;;;;4959245;28;20195;-69
2023/12/18 09:19:42;;;;;;;20.70;14.80;;;3.90;99.90;;;;;;4957675;28;20191;-69
2023/12/18 09:22:08;;;;;;;20.87;12.87;;;4.00;99.90;;;;;;4956535;28;20258;-69
2023/12/18 09:24:33;;;;;;;20.20;15.10;;;4.10;99.90;;;;;;4955900;28;20797;-69
2023/12/18 09:27:01;;;;;;;20.90;13.13;;;4.20;99.90;;;;;;4958397;28;20179;-69
2023/12/18 09:29:26;;;;;;;22.83;15.07;;;4.20;99.90;;;;;;4961384;28;20242;-69
2023/12/18 09:31:52;;;;;;;21.67;14.00;;;4.30;99.90;;;;;;4960867;28;20422;-69
2023/12/18 09:34:17;;;;;;;20.00;13.73;;;4.30;99.90;;;;;;4961353;28;20291;-69
2023/12/18 09:36:43;;;;;;;20.23;14.87;;;4.30;99.90;;;;;;4960850;28;20179;-69
2023/12/18 09:39:09;;;;;;;17.07;11.97;;;4.40;99.90;;;;;;4960407;28;20198;-69
2023/12/18 09:41:35;;;;;;;19.73;13.13;;;4.50;99.90;;;;;;4962474;28;20203;-68
2023/12/18 09:44:01;;;;;;;18.97;12.50;;;4.50;99.90;;;;;;4958372;28;20454;-69
2023/12/18 09:46:26;;;;;;;19.60;11.87;;;4.60;99.90;;;;;;4964111;28;20223;-70
2023/12/18 09:48:53;;;;;;;20.47;14.53;;;4.70;99.90;;;;;;4963592;28;20269;-69
2023/12/18 09:51:24;;;;;;;18.50;12.10;;;4.80;99.90;;;;;;4959323;28;20179;-69
2023/12/18 09:53:54;;;;;;;19.13;12.80;;;4.80;99.90;;;;;;4957470;28;21352;-69
2023/12/18 09:56:21;;;;;;;18.27;12.47;;;4.90;99.90;;;;;;4957640;28;20500;-68
2023/12/18 09:58:47;;;;;;;20.30;12.50;;;4.80;99.90;;;;;;4959856;28;20553;-69
2023/12/18 10:01:13;;;;;;;19.47;13.93;;;4.90;99.90;;;;;;4956408;28;20554;-69
2023/12/18 10:03:39;;;;;;;20.57;13.90;;;4.90;99.90;;;;;;4956758;28;20305;-68
2023/12/18 10:06:05;;;;;;;18.63;12.20;;;4.90;99.90;;;;;;4955959;28;20565;-68
2023/12/18 10:08:31;;;;;;;17.57;12.37;;;5.00;99.90;;;;;;4956452;28;20298;-68
2023/12/18 10:10:56;;;;;;;19.97;12.50;;;5.10;99.90;;;;;;4954521;28;20190;-68
2023/12/18 10:13:24;;;;;;;17.83;13.30;;;5.10;99.90;;;;;;4962563;28;20206;-68
2023/12/18 10:15:52;;;;;;;17.97;12.37;;;5.20;99.90;;;;;;4959409;28;20194;-69
2023/12/18 10:18:21;;;;;;;18.60;12.13;;;5.30;99.90;;;;;;4961857;28;20430;-69
2023/12/18 10:20:48;;;;;;;19.30;13.10;;;5.30;99.90;;;;;;4963811;28;21013;-69
2023/12/18 10:23:14;;;;;;;18.73;12.67;;;5.40;99.90;;;;;;4955143;28;20734;-69
2023/12/18 10:25:39;;;;;;;21.57;12.00;;;5.40;99.90;;;;;;4962321;28;20472;-68
2023/12/18 10:28:06;;;;;;;17.80;11.27;;;5.50;99.90;;;;;;4962049;28;20193;-68
2023/12/18 10:30:34;;;;;;;16.23;12.03;;;5.40;99.90;;;;;;4955543;28;20182;-68
2023/12/18 10:33:05;;;;;;;20.73;12.33;;;5.60;99.90;;;;;;4951022;28;20512;-69
2023/12/18 10:35:32;;;;;;;17.10;10.60;;;5.60;99.90;;;;;;4956648;28;20441;-69
2023/12/18 10:38:00;;;;;;;19.63;11.80;;;5.50;99.90;;;;;;4953445;28;20430;-69
2023/12/18 10:40:27;;;;;;;16.00;11.93;;;5.40;99.90;;;;;;4956041;28;20565;-69
2023/12/18 10:43:22;;;;;;;19.37;12.03;;;5.50;99.90;;;;;;4954917;28;20537;-69
2023/12/18 10:45:50;;;;;;;15.77;9.47;;;5.50;99.90;;;;;;4955950;28;20473;-68
2023/12/18 10:48:18;;;;;;;24.20;10.60;;;5.60;99.90;;;;;;4952199;28;21067;-68
2023/12/18 10:50:45;;;;;;;14.60;11.10;;;5.60;99.90;;;;;;4953050;28;20943;-69
2023/12/18 10:53:14;;;;;;;17.67;10.77;;;5.70;99.90;;;;;;4956006;28;21991;-69
2023/12/18 10:55:41;;;;;;;16.33;10.33;;;5.70;99.90;;;;;;4948144;28;20548;-69
2023/12/18 10:58:08;;;;;;;12.90;10.17;;;5.80;99.90;;;;;;4948819;28;20461;-69
2023/12/18 11:00:35;;;;;;;14.20;10.07;;;5.90;99.90;;;;;;4959872;28;20431;-69
2023/12/18 11:03:02;;;;;;;16.90;10.57;;;6.00;99.90;;;;;;4959734;28;20466;-69
2023/12/18 11:05:29;;;;;;;13.63;9.93;;;5.90;99.90;;;;;;4961119;28;21105;-69
2023/12/18 11:07:56;;;;;;;16.43;10.90;;;6.00;99.90;;;;;;4959522;28;20938;-69
2023/12/18 11:10:22;;;;;;;16.97;11.63;;;6.10;99.90;;;;;;4961595;28;20445;-69
2023/12/18 11:12:50;;;;;;;12.43;9.57;;;6.20;99.90;;;;;;4961116;28;21275;-68
2023/12/18 11:15:56;;;;;;;16.17;10.30;;;6.20;99.90;;;;;;4961970;28;20193;-69
2023/12/18 11:18:51;;;;;;;14.60;9.67;;;6.20;99.90;;;;;;4960387;28;20445;-69
2023/12/18 11:21:16;;;;;;;14.20;10.20;;;6.10;99.90;;;;;;4959920;28;20476;-69
2023/12/18 11:23:42;;;;;;;13.47;9.97;;;6.30;99.90;;;;;;4958630;28;20453;-69
2023/12/18 11:26:12;;;;;;;13.20;10.50;;;6.20;99.90;;;;;;4959688;28;20550;-69
2023/12/18 11:28:39;;;;;;;15.93;10.20;;;6.30;99.90;;;;;;4954556;28;20186;-69
2023/12/18 11:31:06;;;;;;;11.97;9.30;;;6.30;99.90;;;;;;4961166;28;20430;-69
2023/12/18 11:33:31;;;;;;;13.43;10.00;;;6.30;99.90;;;;;;4960158;28;21209;-69
2023/12/18 11:35:57;;;;;;;14.27;11.13;;;6.40;99.90;;;;;;4962578;28;20418;-69
2023/12/18 11:38:24;;;;;;;14.40;9.80;;;6.50;99.90;;;;;;4957131;28;20215;-70
2023/12/18 11:40:53;;;;;;;13.70;9.30;;;6.60;99.90;;;;;;4955172;28;20298;-69
2023/12/18 11:43:41;;;;;;;15.20;11.20;;;6.70;99.90;;;;;;4959200;28;20605;-70
2023/12/18 11:46:08;;;;;;;14.27;9.73;;;6.80;99.90;;;;;;4962900;28;20544;-69
2023/12/18 11:48:34;;;;;;;14.27;9.33;;;6.90;99.90;;;;;;4959050;28;20437;-69
2023/12/18 11:51:02;;;;;;;10.77;8.63;;;7.10;99.90;;;;;;4958337;28;20430;-69
2023/12/18 11:53:34;;;;;;;15.60;10.67;;;7.50;99.90;;;;;;4963501;28;20956;-69
2023/12/18 11:56:06;;;;;;;14.87;11.10;;;8.00;99.90;;;;;;4960526;28;20439;-69
2023/12/18 11:58:33;;;;;;;17.10;10.03;;;8.60;99.90;;;;;;4966977;28;20814;-69
2023/12/18 12:00:59;;;;;;;12.90;8.87;;;9.30;99.90;;;;;;4962026;28;21046;-69
2023/12/18 12:03:25;;;;;;;13.83;8.83;;;9.60;99.90;;;;;;4969717;28;20541;-69
2023/12/18 12:05:54;;;;;;;11.63;9.23;;;9.60;99.90;;;;;;4963850;28;20297;-69
2023/12/18 12:08:20;;;;;;;14.00;10.20;;;9.90;99.90;;;;;;4964455;28;20445;-69
2023/12/18 12:10:47;;;;;;;12.10;9.13;;;9.90;99.90;;;;;;4965009;28;21031;-69
2023/12/18 12:13:31;;;;;;;13.90;9.63;;;9.70;99.90;;;;;;4961521;28;20199;-69
2023/12/18 12:15:59;;;;;;;11.67;9.80;;;9.60;99.90;;;;;;4969272;28;20527;-69
2023/12/18 12:18:28;;;;;;;12.70;9.77;;;10.20;99.90;;;;;;4962402;28;20426;-69
2023/12/18 12:20:55;;;;;;;11.83;9.00;;;11.30;99.90;;;;;;4961752;28;20988;-69
2023/12/18 12:23:21;;;;;;;11.80;8.87;;;12.40;99.90;;;;;;4969693;28;20483;-68
2023/12/18 12:25:48;;;;;;;11.47;9.67;;;12.80;99.90;;;;;;4965426;28;20532;-70
2023/12/18 12:28:17;;;;;;;10.43;9.33;;;13.50;99.90;;;;;;4962035;28;20458;-69
2023/12/18 12:30:43;;;;;;;12.70;9.47;;;14.20;99.90;;;;;;4971594;28;20433;-69
2023/12/18 12:33:10;;;;;;;12.57;10.17;;;14.70;99.90;;;;;;4961825;28;20457;-69